Data for 03/12/2007

Time Sea-Level Adjusted Pressure Absolute Pressure Temperature Relative Humidity Dew Point   
(mb) (inHg) (mb) (inHg) (C) (F) (%) (C) (F)
00:05 1022 30.18 851 25.13 12.3 54.1 39 -1.2 29.8
00:10 1022 30.18 851 25.13 12.1 53.7 39 -1.3 29.7
00:15 1022 30.18 851 25.13 12.1 53.8 38 -1.9 28.7
00:20 1022 30.18 851 25.13 12.5 54.4 37 -1.6 29.1
00:25 1022 30.18 851 25.13 12.1 53.8 38 -1.8 28.8
00:30 1022 30.18 851 25.13 12.1 53.9 37 -1.9 28.5
00:35 1022 30.18 851 25.13 12 53.6 38 -2 28.4
00:40 1022 30.18 851 25.13 12 53.5 38 -1.7 28.9
00:45 1022 30.18 851 25.13 11.7 53 39 -1.8 28.7
00:50 1022 30.18 852 25.16 11.3 52.4 40 -1.6 29.2
00:55 1022 30.18 851 25.13 11.1 52 40 -2 28.5
01:00 1022 30.18 851 25.13 11.4 52.6 40 -1.7 28.9
01:05 1022 30.18 852 25.16 11.3 52.4 40 -1.8 28.7
01:10 1022 30.18 851 25.13 11.6 52.9 39 -1.9 28.5
01:15 1022 30.18 851 25.13 11.9 53.5 38 -1.9 28.6
01:20 1022 30.18 851 25.13 12.2 53.9 38 -1.8 28.8
01:25 1022 30.18 851 25.13 12 53.6 39 -1.5 29.3
01:30 1022 30.18 851 25.13 11.1 52 43 -0.8 30.5
01:35 1022 30.18 851 25.13 9.9 49.8 47 -0.9 30.4
01:40 1022 30.18 851 25.13 9 48.3 49 -0.9 30.3
01:45 1022 30.18 851 25.13 8.4 47 53 -0.7 30.7
01:50 1022 30.18 851 25.13 8 46.3 53 -0.9 30.4
01:55 1022 30.18 851 25.13 7.9 46.3 53 -1.1 30
02:00 1022 30.18 851 25.13 8.3 47 49 -1.7 28.9
02:05 1022 30.18 851 25.13 9.3 48.7 47 -1.4 29.6
02:10 1022 30.18 851 25.13 9.5 49.1 46 -1.5 29.4
02:15 1022 30.18 851 25.13 9.7 49.4 46 -1.5 29.3
02:20 1022 30.18 851 25.13 10 49.9 45 -1.5 29.4
02:25 1022 30.18 851 25.13 10.1 50.2 44 -1.6 29.1
02:30 1022 30.18 851 25.13 10.2 50.4 46 -0.8 30.5
02:35 1022 30.18 851 25.13 9.2 48.6 47 -1.3 29.6
02:40 1022 30.18 851 25.13 8.8 47.9 49 -1.2 29.9
02:45 1022 30.18 851 25.13 8.5 47.3 51 -1.2 29.9
02:50 1022 30.18 851 25.13 8.5 47.3 50 -1.2 29.9
02:55 1022 30.18 851 25.13 8.4 47 51 -1.3 29.7
03:00 1022 30.18 851 25.13 8.4 47.2 50 -1.4 29.5
03:05 1022 30.18 851 25.13 9 48.2 47 -1.8 28.7
03:10 1022 30.18 851 25.13 9.7 49.5 46 -1.4 29.5
03:15 1022 30.18 851 25.13 9.6 49.3 46 -1.3 29.6
03:20 1022 30.18 851 25.13 9.7 49.4 46 -1.5 29.4
03:25 1022 30.18 851 25.13 10.3 50.5 43 -1.7 29
03:30 1022 30.18 851 25.13 10.5 50.9 43 -1.4 29.4
03:35 1022 30.18 851 25.13 10.7 51.2 43 -1.4 29.4
03:40 1022 30.18 851 25.13 10.7 51.2 44 -1.1 30.1
03:45 1022 30.18 851 25.13 10.3 50.6 45 -1.2 29.9
03:50 1022 30.18 851 25.13 10.4 50.8 44 -1.3 29.6
03:55 1021 30.15 851 25.13 10.5 50.8 45 -1.1 30.1
04:00 1021 30.15 851 25.13 10.2 50.3 46 -0.8 30.5
04:05 1021 30.15 851 25.13 9.9 49.9 47 -0.9 30.3
04:10 1021 30.15 850 25.1 9.8 49.7 48 -0.7 30.7
04:15 1021 30.15 850 25.1 9.7 49.4 48 -0.7 30.8
04:20 1021 30.15 850 25.1 9.3 48.7 49 -0.7 30.7
04:25 1021 30.15 850 25.1 9.1 48.4 50 -0.9 30.4
04:30 1021 30.15 850 25.1 9.4 48.9 48 -1.1 30.1
04:35 1021 30.15 850 25.1 9.9 49.8 46 -1.1 30.1
04:40 1021 30.15 850 25.1 10 49.9 46 -1 30.1
04:45 1021 30.15 850 25.1 10.2 50.3 45 -1.1 29.9
04:50 1021 30.15 850 25.1 10.6 51 43 -1.4 29.5
04:55 1021 30.15 850 25.1 10.8 51.5 43 -1.1 30
05:00 1021 30.15 850 25.1 10.7 51.3 43 -1.3 29.7
05:05 1021 30.15 850 25.1 10.7 51.2 44 -1 30.1
05:10 1021 30.15 850 25.1 10.6 51.1 44 -1.2 29.9
05:15 1021 30.15 850 25.1 10.5 51 43 -1.3 29.6
05:20 1021 30.15 850 25.1 10.6 51.1 43 -1.3 29.7
05:25 1021 30.15 850 25.1 10.8 51.4 42 -1.7 28.9
05:30 1021 30.15 850 25.1 11.1 52 42 -1.4 29.5
05:35 1021 30.15 850 25.1 10.8 51.5 44 -1 30.3
05:40 1021 30.15 850 25.1 10.6 51 43 -1.4 29.5
05:45 1021 30.15 850 25.1 10.8 51.4 43 -1.2 29.9
05:50 1021 30.15 850 25.1 10.4 50.6 46 -0.8 30.5
05:55 1021 30.15 850 25.1 9.9 49.9 48 -0.6 30.9
06:00 1021 30.15 850 25.1 9.8 49.6 47 -0.9 30.3
06:05 1021 30.15 850 25.1 10.2 50.3 46 -1 30.3
06:10 1021 30.15 850 25.1 10.3 50.6 47 -0.5 31.1
06:15 1021 30.15 850 25.1 10.3 50.6 45 -1.1 29.9
06:20 1021 30.15 850 25.1 10.7 51.2 45 -0.7 30.7
06:25 1020 30.12 850 25.1 10.8 51.5 45 -0.5 31.1
06:30 1020 30.12 850 25.1 10.8 51.4 45 -0.6 30.9
06:35 1020 30.12 850 25.1 10.8 51.4 45 -0.8 30.6
06:40 1020 30.12 850 25.1 11.3 52.3 43 -0.7 30.7
06:45 1020 30.12 850 25.1 11.4 52.5 44 -0.4 31.3
06:50 1020 30.12 850 25.1 11.5 52.6 42 -0.8 30.6
06:55 1020 30.12 849 25.07 12.2 53.9 41 -0.6 30.9
07:00 1020 30.12 849 25.07 12.1 53.8 41 -0.8 30.6
07:05 1020 30.12 849 25.07 12.1 53.7 41 -0.7 30.7
07:10 1020 30.12 849 25.07 12 53.6 43 -0.3 31.5
07:15 1020 30.12 849 25.07 11.7 53 42 -0.8 30.5
07:20 1020 30.12 849 25.07 11.9 53.4 41 -0.9 30.3
07:25 1020 30.12 849 25.07 12 53.6 41 -0.8 30.6
07:30 1020 30.12 849 25.07 12 53.6 40 -1 30.2
07:35 1020 30.12 849 25.07 12.1 53.8 41 -0.7 30.7
07:40 1020 30.12 849 25.07 11.7 53.1 42 -0.8 30.5
07:45 1020 30.12 849 25.07 11.4 52.5 43 -0.8 30.5
07:50 1020 30.12 849 25.07 11.2 52.1 43 -0.9 30.4
07:55 1020 30.12 849 25.07 10.7 51.3 45 -0.8 30.5
08:00 1020 30.12 849 25.07 10.6 51 42 -1.7 29
08:05 1019 30.09 849 25.07 11.1 52 40 -1.8 28.8
08:10 1019 30.09 849 25.07 11.4 52.5 40 -1.6 29.1
08:15 1019 30.09 849 25.07 11.4 52.6 39 -2 28.4
08:20 1019 30.09 849 25.07 11.9 53.4 38 -1.9 28.5
08:25 1019 30.09 848 25.04 12.1 53.7 39 -1.6 29.2
08:30 1019 30.09 848 25.04 12.1 53.8 37 -2.1 28.1
08:35 1019 30.09 848 25.04 12.4 54.4 36 -2.1 28.2
08:40 1019 30.09 849 25.07 12.5 54.5 36 -2.3 27.9
08:45 1019 30.09 849 25.07 12.7 54.8 35 -2.5 27.5
08:50 1020 30.12 849 25.07 12.9 55.3 35 -2 28.5
08:55 1020 30.12 849 25.07 12.6 54.6 37 -1.6 29.2
09:00 1020 30.12 849 25.07 12.7 54.9 35 -2.1 28.2
09:05 1020 30.12 849 25.07 13.1 55.6 35 -1.8 28.7
09:10 1020 30.12 849 25.07 13.3 56 35 -1.6 29.1
09:15 1020 30.12 849 25.07 13.6 56.5 34 -1.9 28.5
09:20 1020 30.12 849 25.07 13.8 56.8 34 -1.8 28.7
09:25 1020 30.12 849 25.07 14.2 57.6 32 -2.2 28
09:30 1020 30.12 849 25.07 14.6 58.2 32 -2.1 28.3
09:35 1020 30.12 849 25.07 15.1 59.2 31 -2 28.4
09:40 1020 30.12 849 25.07 15.5 59.9 30 -2 28.4
09:45 1020 30.12 849 25.07 15.6 60.2 30 -1.9 28.7
09:50 1020 30.12 849 25.07 16 60.7 29 -1.9 28.6
09:55 1020 30.12 849 25.07 16.3 61.3 29 -1.8 28.7
10:00 1020 30.12 849 25.07 16.4 61.6 28 -1.9 28.5
10:05 1019 30.09 849 25.07 16.5 61.6 29 -1.7 29
10:10 1019 30.09 849 25.07 16.2 61.2 29 -1.8 28.7
10:15 1019 30.09 849 25.07 16.1 60.9 28 -2.1 28.2
10:20 1019 30.09 848 25.04 16.1 60.9 29 -1.8 28.8
10:25 1019 30.09 848 25.04 15.9 60.7 30 -1.7 29
10:30 1019 30.09 848 25.04 16 60.9 29 -2.1 28.2
10:35 1019 30.09 848 25.04 16.5 61.6 29 -1.7 28.9
10:40 1019 30.09 848 25.04 16.3 61.4 29 -1.5 29.3
10:45 1019 30.09 848 25.04 16.1 60.9 29 -1.8 28.8
10:50 1019 30.09 848 25.04 15.9 60.5 29 -1.9 28.5
10:55 1019 30.09 848 25.04 16.2 61.2 28 -2 28.3
11:00 1019 30.09 848 25.04 16.7 62.1 28 -1.9 28.6
11:05 1019 30.09 848 25.04 17.1 62.7 28 -1.5 29.3
11:10 1019 30.09 848 25.04 17.5 63.6 26 -1.8 28.7
11:15 1019 30.09 848 25.04 17.5 63.5 26 -2 28.3
11:20 1019 30.09 848 25.04 17.2 63 26 -2.3 27.8
11:25 1019 30.09 848 25.04 17.5 63.4 26 -2.1 28.3
11:30 1019 30.09 848 25.04 17.8 64.1 25 -2.3 27.9
11:35 1019 30.09 848 25.04 18.1 64.5 25 -1.9 28.6
11:40 1019 30.09 848 25.04 18.4 65 25 -1.9 28.5
11:45 1019 30.09 848 25.04 18.8 65.8 24 -2.1 28.2
11:50 1018 30.06 848 25.04 19.1 66.3 24 -1.7 28.9
11:55 1018 30.06 848 25.04 19 66.2 24 -2.1 28.1
12:00 1018 30.06 848 25.04 18.3 65 26 -1.5 29.3
12:05 1018 30.06 847 25.01 17.9 64.2 25 -2.3 27.9
12:10 1018 30.06 847 25.01 17.8 64.1 26 -1.9 28.5
12:15 1018 30.06 847 25.01 18.1 64.5 25 -2.1 28.2
12:20 1018 30.06 847 25.01 17.9 64.2 25 -2.4 27.7
12:25 1018 30.06 847 25.01 17.4 63.3 26 -2.2 28
12:30 1018 30.06 847 25.01 17.5 63.6 26 -1.9 28.6
12:35 1017 30.03 847 25.01 17.9 64.2 25 -2.3 27.9
12:40 1017 30.03 847 25.01 18.2 64.7 25 -2.1 28.3
12:45 1017 30.03 847 25.01 18.1 64.5 25 -2.1 28.2
12:50 1017 30.03 847 25.01 18.1 64.7 24 -2.5 27.6
12:55 1017 30.03 847 25.01 18.1 64.7 24 -2.6 27.4
13:00 1017 30.03 847 25.01 18.5 65.3 25 -2 28.5
13:05 1017 30.03 846 24.98 18.8 65.8 23 -2.6 27.3
13:10 1017 30.03 846 24.98 18.8 65.8 23 -2.7 27.1
13:15 1017 30.03 846 24.98 19 66.2 22 -3.1 26.3
13:20 1017 30.03 846 24.98 19.3 66.8 21 -3.3 26
13:25 1017 30.03 846 24.98 19.1 66.3 21 -3.7 25.4
13:30 1017 30.03 846 24.98 19.2 66.5 20 -4.1 24.6
13:35 1017 30.03 846 24.98 19.1 66.3 21 -3.9 25
13:40 1017 30.03 846 24.98 18.8 65.9 22 -3.1 26.3
13:45 1017 30.03 846 24.98 18.9 66 21 -3.8 25.1
13:50 1017 30.03 846 24.98 19.1 66.4 21 -3.6 25.5
13:55 1017 30.03 846 24.98 19.1 66.3 20 -4.4 24.1
14:00 1017 30.03 846 24.98 18.8 65.9 20 -4.3 24.3
14:05 1016 30 846 24.98 18.7 65.7 21 -4.1 24.7
14:10 1016 30 846 24.98 18.7 65.7 21 -4.1 24.7
14:15 1016 30 846 24.98 19.1 66.4 22 -3 26.6
14:20 1016 30 845 24.95 18.8 65.9 21 -3.7 25.4
14:25 1016 30 845 24.95 18.5 65.4 21 -4.3 24.3
14:30 1016 30 845 24.95 18.4 65.1 21 -4.2 24.5
14:35 1016 30 845 24.95 18.3 64.9 22 -3.9 24.9
14:40 1016 30 845 24.95 18.6 65.5 20 -5 23.1
14:45 1016 30 845 24.95 18.8 65.8 23 -2.7 27.1
14:50 1016 30 845 24.95 18.5 65.3 20 -4.6 23.8
14:55 1015 29.97 845 24.95 19.1 66.4 20 -4.5 24
15:00 1015 29.97 845 24.95 18.9 65.9 22 -3.5 25.8
15:05 1015 29.97 845 24.95 18.4 65 22 -3.5 25.7
15:10 1015 29.97 844 24.92 18.1 64.6 21 -4.5 24
15:15 1015 29.97 844 24.92 18 64.3 23 -3.5 25.7
15:20 1015 29.97 844 24.92 18 64.3 22 -4 24.9
15:25 1015 29.97 844 24.92 17.9 64.3 22 -3.9 25.1
15:30 1015 29.97 844 24.92 17.8 64 23 -3.6 25.5
15:35 1015 29.97 844 24.92 17.9 64.2 22 -4 24.7
15:40 1015 29.97 844 24.92 18 64.4 22 -3.9 24.9
15:45 1015 29.97 844 24.92 18 64.4 22 -4 24.9
15:50 1015 29.97 844 24.92 17.8 64 21 -4.4 24
15:55 1015 29.97 844 24.92 18.2 64.8 22 -3.7 25.3
16:00 1015 29.97 844 24.92 18.3 65 20 -4.7 23.5
16:05 1015 29.97 844 24.92 18.5 65.3 22 -3.4 25.9
16:10 1015 29.97 844 24.92 18 64.3 22 -3.7 25.3
16:15 1015 29.97 844 24.92 18.2 64.7 24 -2.9 26.8
16:20 1015 29.97 844 24.92 19 66.2 23 -2.2 28
16:25 1015 29.97 844 24.92 19.2 66.5 23 -2.1 28.2
16:30 1015 29.97 844 24.92 19.4 67 21 -3.3 26
16:35 1015 29.97 844 24.92 19.7 67.4 20 -3.6 25.5
16:40 1015 29.97 844 24.92 19.9 67.8 21 -3 26.7
16:45 1015 29.97 844 24.92 19.8 67.7 22 -2.2 28.1
16:50 1015 29.97 844 24.92 19.5 67.2 21 -2.9 26.7
16:55 1015 29.97 844 24.92 19.6 67.3 22 -2.6 27.2
17:00 1014 29.94 844 24.92 19.5 67.1 21 -3.5 25.7
17:05 1014 29.94 844 24.92 19.3 66.8 21 -3.1 26.4
17:10 1014 29.94 844 24.92 19.1 66.5 23 -2.4 27.7
17:15 1014 29.94 844 24.92 19 66.3 21 -3.5 25.8
17:20 1014 29.94 844 24.92 19.2 66.6 22 -2.7 27.1
17:25 1014 29.94 843 24.89 19.1 66.4 22 -2.7 27.1
17:30 1014 29.94 843 24.89 19 66.2 24 -2.2 28.1
17:35 1014 29.94 843 24.89 18.8 65.8 23 -2.7 27.1
17:40 1014 29.94 843 24.89 18.9 66 24 -2.1 28.2
17:45 1014 29.94 843 24.89 18.6 65.5 23 -2.7 27.2
17:50 1014 29.94 843 24.89 18.6 65.5 24 -2.5 27.5
17:55 1014 29.94 843 24.89 18.3 65 24 -2.3 27.8
18:00 1014 29.94 843 24.89 18.2 64.8 25 -1.9 28.6
18:05 1014 29.94 843 24.89 18.3 64.9 25 -1.9 28.6
18:10 1014 29.94 843 24.89 18.1 64.6 24 -2.5 27.6
18:15 1014 29.94 843 24.89 17.9 64.3 24 -2.6 27.4
18:20 1014 29.94 843 24.89 17.6 63.6 25 -2.6 27.4
18:25 1014 29.94 843 24.89 17.4 63.3 26 -2.2 28
18:30 1014 29.94 843 24.89 17.1 62.9 27 -1.9 28.6
18:35 1014 29.94 843 24.89 16.8 62.3 28 -1.9 28.7
18:40 1014 29.94 843 24.89 16.9 62.3 26 -2.5 27.5
18:45 1014 29.94 843 24.89 16.8 62.2 27 -2.3 27.8
18:50 1014 29.94 844 24.92 16.6 61.9 28 -2.1 28.3
18:55 1015 29.97 844 24.92 16.4 61.6 35 0.9 33.6
19:00 1015 29.97 844 24.92 14.6 58.3 44 2.5 36.5
19:05 1015 29.97 844 24.92 13 55.4 49 2.5 36.5
19:10 1015 29.97 845 24.95 12.3 54.1 52 2.8 37
19:15 1016 30 845 24.95 11.6 52.9 56 3.1 37.5
19:20 1016 30 845 24.95 11.2 52.2 56 2.9 37.3
19:25 1016 30 845 24.95 10.9 51.7 58 3.1 37.6
19:30 1016 30 845 24.95 10.6 51.1 60 3.2 37.8
19:35 1016 30 845 24.95 10.5 50.8 61 3.4 38.1
19:40 1016 30 845 24.95 10.3 50.5 63 3.5 38.3
19:45 1016 30 845 24.95 10 50 63 3.4 38.2
19:50 1017 30.03 846 24.98 9.9 49.7 63 3.3 37.9
19:55 1017 30.03 846 24.98 9.8 49.6 63 3.2 37.7
20:00 1017 30.03 846 24.98 9.8 49.6 62 3 37.4
20:05 1017 30.03 847 25.01 9.8 49.7 62 3 37.4
20:10 1017 30.03 847 25.01 9.8 49.7 63 3 37.5
20:15 1018 30.06 847 25.01 9.8 49.6 62 3 37.4
20:20 1018 30.06 847 25.01 9.8 49.7 63 3.1 37.5
20:25 1018 30.06 847 25.01 9.9 49.7 62 3.1 37.5
20:30 1018 30.06 847 25.01 9.5 49.2 66 3.5 38.3
20:35 1019 30.09 848 25.04 9 48.2 67 3.2 37.8
20:40 1019 30.09 848 25.04 9.2 48.5 67 3.4 38.2
20:45 1019 30.09 848 25.04 9.3 48.8 67 3.5 38.3
20:50 1019 30.09 848 25.04 9.3 48.7 68 3.7 38.6
20:55 1019 30.09 848 25.04 9.2 48.6 71 4.2 39.6
21:00 1019 30.09 848 25.04 9 48.3 71 4.1 39.4
21:05 1019 30.09 848 25.04 8.9 48 73 4.3 39.7
21:10 1019 30.09 848 25.04 9 48.2 73 4.4 39.8
21:15 1019 30.09 848 25.04 9 48.2 73 4.3 39.8
21:20 1019 30.09 848 25.04 9 48.1 73 4.4 39.9
21:25 1019 30.09 848 25.04 8.9 48.1 74 4.6 40.3
21:30 1019 30.09 848 25.04 8.9 48 76 4.9 40.7
21:35 1019 30.09 848 25.04 8.6 47.5 78 5 41
21:40 1019 30.09 848 25.04 7.8 46 80 4.5 40.2
21:45 1019 30.09 848 25.04 7.6 45.6 80 4.4 39.9
21:50 1019 30.09 848 25.04 7.5 45.5 82 4.7 40.4
21:55 1019 30.09 848 25.04 7.5 45.4 83 4.8 40.7
22:00 1018 30.06 848 25.04 7.1 44.8 85 4.7 40.5
22:05 1018 30.06 847 25.01 6.9 44.4 86 4.7 40.4
22:10 1018 30.06 847 25.01 6.6 43.8 87 4.6 40.2
22:15 1018 30.06 847 25.01 6.4 43.5 86 4.2 39.6
22:20 1018 30.06 847 25.01 6.6 43.8 85 4.2 39.5
22:25 1017 30.03 847 25.01 6.5 43.7 85 4.2 39.6
22:30 1017 30.03 847 25.01 6.4 43.6 85 4.1 39.4
22:35 1017 30.03 847 25.01 6.5 43.7 84 4 39.1
22:40 1017 30.03 847 25.01 6.5 43.8 84 4 39.2
22:45 1017 30.03 847 25.01 6.8 44.2 81 3.8 38.9
22:50 1017 30.03 847 25.01 7.2 45 80 4.1 39.3
22:55 1017 30.03 847 25.01 7.3 45.1 80 4 39.2
23:00 1017 30.03 847 25.01 7.3 45.2 78 3.7 38.7
23:05 1017 30.03 847 25.01 7.2 45 79 3.8 38.8
23:10 1017 30.03 847 25.01 7.2 44.9 78 3.6 38.5
23:15 1017 30.03 847 25.01 7.6 45.6 75 3.4 38.1
23:20 1017 30.03 847 25.01 8.1 46.5 74 3.6 38.6
23:25 1017 30.03 847 25.01 8.2 46.8 74 3.8 38.9
23:30 1017 30.03 847 25.01 8.5 47.3 73 3.9 39
23:35 1017 30.03 847 25.01 8.7 47.7 74 4.4 39.9
23:40 1017 30.03 846 24.98 8.5 47.4 74 4.2 39.6
23:45 1017 30.03 846 24.98 8.1 46.5 76 4.1 39.5
23:50 1017 30.03 846 24.98 7.3 45.2 84 4.9 40.8
23:55 1017 30.03 846 24.98 6.6 43.8 86 4.4 40
24:00 1017 30.03 846 24.98 6.3 43.4 87 4.3 39.8